Time;durP1;ratioP1;P1;durP2;ratioP2;P2;SDS_P1;SDS_P2;PMS_P1;PMS_P2;Temp;Humidity;BMP_temperature;BMP_pressure;BME280_temperature;BME280_humidity;BME280_pressure;Samples;Min_cycle;Max_cycle;Signal;HPM_P1;HPM_P2
2021/01/01 00:02:03;;;;;;;1.30;1.20;;;6.70;99.90;;;;;;5110118;28;20491;-75
2021/01/01 00:04:29;;;;;;;1.10;0.95;;;5.90;99.90;;;;;;5110809;28;20403;-75
2021/01/01 00:06:56;;;;;;;1.42;1.02;;;5.90;99.90;;;;;;5111525;28;20379;-76
2021/01/01 00:09:22;;;;;;;1.90;1.00;;;6.10;99.90;;;;;;5110462;28;20384;-74
2021/01/01 00:11:50;;;;;;;0.98;0.88;;;7.00;99.90;;;;;;5110735;28;20860;-76
2021/01/01 00:14:17;;;;;;;1.50;0.90;;;5.00;99.90;;;;;;5110609;28;20465;-77
2021/01/01 00:16:44;;;;;;;2.60;1.00;;;4.90;99.90;;;;;;5110784;28;20410;-74
2021/01/01 00:19:10;;;;;;;0.88;0.70;;;5.60;99.90;;;;;;5109979;28;20381;-74
2021/01/01 00:21:36;;;;;;;1.75;1.10;;;6.30;99.90;;;;;;5104961;28;21006;-74
2021/01/01 00:24:01;;;;;;;1.00;0.80;;;4.80;99.90;;;;;;5106564;28;20384;-75
2021/01/01 00:26:27;;;;;;;1.00;0.70;;;6.40;99.90;;;;;;5110303;28;20469;-75
2021/01/01 00:28:53;;;;;;;1.00;0.90;;;4.90;99.90;;;;;;5110673;28;20733;-75
2021/01/01 00:31:21;;;;;;;1.00;0.90;;;4.60;99.90;;;;;;5096487;28;20875;-76
2021/01/01 00:33:48;;;;;;;1.10;1.00;;;5.50;99.90;;;;;;5090415;28;20393;-75
2021/01/01 00:36:14;;;;;;;0.80;0.70;;;5.00;99.90;;;;;;5090249;28;20418;-75
2021/01/01 00:38:51;;;;;;;1.48;1.00;;;5.30;99.90;;;;;;5088593;28;20451;-76
2021/01/01 00:41:29;;;;;;;1.20;1.00;;;5.90;99.90;;;;;;5090640;28;20374;-76
2021/01/01 00:43:56;;;;;;;2.10;1.25;;;4.70;99.90;;;;;;5090697;28;20378;-75
2021/01/01 00:46:23;;;;;;;0.88;0.80;;;4.30;99.90;;;;;;5089850;28;20461;-75
2021/01/01 00:48:49;;;;;;;1.43;1.00;;;4.60;99.90;;;;;;5090206;28;20945;-75
2021/01/01 00:51:22;;;;;;;1.77;1.30;;;4.70;99.90;;;;;;5110891;28;20376;-75
2021/01/01 00:53:48;;;;;;;1.60;1.25;;;7.30;99.90;;;;;;5102496;28;20398;-76
2021/01/01 00:56:21;;;;;;;1.88;1.55;;;4.50;99.90;;;;;;5090409;28;20444;-75
2021/01/01 00:58:49;;;;;;;1.70;1.30;;;5.70;99.90;;;;;;5102324;28;20744;-75
2021/01/01 01:01:16;;;;;;;1.10;1.00;;;4.40;99.90;;;;;;5112617;28;20740;-75
2021/01/01 01:03:41;;;;;;;0.93;0.80;;;4.60;99.90;;;;;;5101066;28;20892;-76
2021/01/01 01:06:07;;;;;;;1.27;0.82;;;4.80;99.90;;;;;;5103048;28;20373;-75
2021/01/01 01:08:33;;;;;;;1.33;1.13;;;4.80;99.90;;;;;;5100611;28;20409;-76
2021/01/01 01:10:58;;;;;;;0.80;0.80;;;4.70;99.90;;;;;;5093902;28;20712;-76
2021/01/01 01:13:24;;;;;;;0.67;0.60;;;5.50;99.90;;;;;;5109700;28;20381;-76
2021/01/01 01:15:49;;;;;;;0.90;0.77;;;4.70;99.90;;;;;;5100293;28;20491;-75
2021/01/01 01:18:15;;;;;;;0.70;0.70;;;4.50;99.90;;;;;;5103800;28;20378;-76
2021/01/01 01:20:41;;;;;;;0.60;0.60;;;6.30;99.90;;;;;;5106896;28;20426;-76
2021/01/01 01:23:06;;;;;;;1.20;0.70;;;4.60;99.90;;;;;;5096956;28;20699;-76
2021/01/01 01:25:32;;;;;;;1.00;0.90;;;6.50;99.90;;;;;;5109000;28;20862;-76
2021/01/01 01:27:57;;;;;;;1.00;0.90;;;6.90;99.90;;;;;;5101191;28;20379;-75
2021/01/01 01:30:23;;;;;;;0.90;0.80;;;5.80;99.90;;;;;;5102012;28;20386;-76
2021/01/01 01:32:49;;;;;;;1.42;0.80;;;4.70;99.90;;;;;;5099530;28;20386;-76
2021/01/01 01:35:14;;;;;;;1.00;0.80;;;5.00;99.90;;;;;;5097435;28;20406;-76
2021/01/01 01:37:40;;;;;;;0.70;0.70;;;4.70;99.90;;;;;;5093626;28;20385;-76
2021/01/01 01:40:06;;;;;;;1.90;0.50;;;6.20;99.90;;;;;;5092978;28;20754;-76
2021/01/01 01:42:32;;;;;;;1.10;0.70;;;4.70;99.90;;;;;;5092686;28;20378;-76
2021/01/01 01:44:58;;;;;;;1.80;0.70;;;4.90;99.90;;;;;;5091742;28;20708;-76
2021/01/01 01:47:24;;;;;;;0.80;0.60;;;5.90;99.90;;;;;;5092621;28;20381;-77
2021/01/01 01:49:50;;;;;;;0.55;0.52;;;4.80;99.90;;;;;;5093269;28;20824;-75
2021/01/01 01:52:17;;;;;;;0.70;0.50;;;5.70;99.90;;;;;;5093191;28;20385;-75
2021/01/01 01:54:45;;;;;;;1.42;1.08;;;5.40;99.90;;;;;;5092139;28;21030;-76
2021/01/01 01:57:11;;;;;;;1.10;0.70;;;4.90;99.90;;;;;;5092610;28;20463;-76
2021/01/01 01:59:37;;;;;;;1.02;0.80;;;4.60;99.90;;;;;;5092078;28;20374;-75
2021/01/01 02:02:03;;;;;;;0.70;0.60;;;4.40;99.90;;;;;;5093244;28;20858;-76
2021/01/01 02:04:29;;;;;;;0.80;0.60;;;5.80;99.90;;;;;;5092215;28;20397;-76
2021/01/01 02:06:54;;;;;;;1.20;1.07;;;4.50;99.90;;;;;;5092917;28;20543;-76
2021/01/01 02:09:20;;;;;;;0.83;0.80;;;5.20;99.90;;;;;;5092478;28;20398;-77
2021/01/01 02:11:51;;;;;;;1.13;0.90;;;4.50;99.90;;;;;;5090097;28;20528;-76
2021/01/01 02:14:17;;;;;;;1.10;0.60;;;6.60;99.90;;;;;;5090986;28;20787;-76
2021/01/01 02:16:43;;;;;;;0.60;0.52;;;4.60;99.90;;;;;;5091569;28;20412;-76
2021/01/01 02:19:12;;;;;;;1.00;0.80;;;5.60;99.90;;;;;;5092625;28;20394;-76
2021/01/01 02:21:40;;;;;;;0.68;0.68;;;6.20;99.90;;;;;;5092115;28;20374;-76
2021/01/01 02:24:06;;;;;;;0.98;0.88;;;5.00;99.90;;;;;;5090970;28;20378;-75
2021/01/01 02:26:32;;;;;;;0.80;0.73;;;4.60;99.90;;;;;;5091616;28;20450;-76
2021/01/01 02:28:57;;;;;;;0.83;0.60;;;4.70;99.90;;;;;;5092758;28;20411;-75
2021/01/01 02:31:23;;;;;;;1.17;1.07;;;5.80;99.90;;;;;;5092070;28;20812;-77
2021/01/01 02:33:49;;;;;;;1.10;0.80;;;5.80;99.90;;;;;;5090996;28;20473;-75
2021/01/01 02:36:14;;;;;;;1.10;1.00;;;5.90;99.90;;;;;;5092322;28;20418;-75
2021/01/01 02:38:40;;;;;;;0.70;0.70;;;5.50;99.90;;;;;;5091471;28;20378;-75
2021/01/01 02:41:06;;;;;;;1.20;0.80;;;6.90;99.90;;;;;;5092366;28;20404;-75
2021/01/01 02:43:32;;;;;;;1.00;0.90;;;4.50;99.90;;;;;;5091648;28;20435;-74
2021/01/01 02:45:57;;;;;;;1.00;0.90;;;5.10;99.90;;;;;;5090769;28;20777;-74
2021/01/01 02:48:23;;;;;;;1.40;1.20;;;6.50;99.90;;;;;;5092024;28;20382;-75
2021/01/01 02:50:48;;;;;;;1.67;1.00;;;5.00;99.90;;;;;;5091557;28;20413;-75
2021/01/01 02:53:14;;;;;;;1.30;1.20;;;5.70;99.90;;;;;;5092296;28;20905;-74
2021/01/01 02:55:40;;;;;;;1.00;0.90;;;4.20;99.90;;;;;;5091379;28;20398;-74
2021/01/01 02:58:07;;;;;;;0.80;0.80;;;6.90;99.90;;;;;;5092069;28;20804;-74
2021/01/01 03:00:36;;;;;;;0.75;0.75;;;6.00;99.90;;;;;;5089889;28;20386;-75
2021/01/01 03:03:02;;;;;;;0.90;0.70;;;4.30;99.90;;;;;;5090650;28;20425;-75
2021/01/01 03:05:27;;;;;;;0.80;0.60;;;4.30;99.90;;;;;;5091097;28;20389;-77
2021/01/01 03:07:53;;;;;;;0.90;0.70;;;6.20;99.90;;;;;;5091780;28;20390;-76
2021/01/01 03:10:19;;;;;;;0.60;0.60;;;4.50;99.90;;;;;;5091802;28;20461;-76
2021/01/01 03:12:45;;;;;;;0.73;0.70;;;4.30;99.90;;;;;;5091038;28;20988;-75
2021/01/01 03:15:11;;;;;;;0.90;0.80;;;5.10;99.90;;;;;;5091648;28;20911;-75
2021/01/01 03:17:37;;;;;;;0.80;0.70;;;4.20;99.90;;;;;;5089749;28;20396;-76
2021/01/01 03:20:05;;;;;;;0.82;0.75;;;5.80;99.90;;;;;;5091445;28;20492;-76
2021/01/01 03:22:30;;;;;;;0.80;0.80;;;4.10;99.90;;;;;;5091202;28;20394;-76
2021/01/01 03:24:56;;;;;;;0.80;0.80;;;4.40;99.90;;;;;;5091454;28;20396;-76
2021/01/01 03:27:22;;;;;;;0.80;0.80;;;4.80;99.90;;;;;;5090716;28;20374;-75
2021/01/01 03:29:47;;;;;;;0.80;0.80;;;5.60;99.90;;;;;;5091047;28;20999;-75
2021/01/01 03:32:13;;;;;;;1.20;1.03;;;4.10;99.90;;;;;;5091692;28;20386;-76
2021/01/01 03:34:39;;;;;;;1.10;1.00;;;5.40;99.90;;;;;;5090644;28;20371;-76
2021/01/01 03:37:05;;;;;;;1.20;1.10;;;5.30;99.90;;;;;;5089757;28;20414;-76
2021/01/01 03:39:30;;;;;;;1.20;1.10;;;4.90;99.90;;;;;;5090668;28;20439;-76
2021/01/01 03:41:56;;;;;;;1.37;1.20;;;4.50;99.90;;;;;;5091353;28;20438;-76
2021/01/01 03:44:22;;;;;;;2.40;1.40;;;4.10;99.90;;;;;;5091240;28;20374;-75
2021/01/01 03:46:47;;;;;;;1.80;1.60;;;5.80;99.90;;;;;;5090315;28;20382;-76
2021/01/01 03:49:13;;;;;;;2.23;1.63;;;4.80;99.90;;;;;;5091372;28;20378;-76
2021/01/01 03:51:38;;;;;;;1.70;1.60;;;4.20;99.90;;;;;;5090116;28;20375;-75
2021/01/01 03:54:04;;;;;;;2.73;2.20;;;5.20;99.90;;;;;;5091341;28;20828;-75
2021/01/01 03:56:30;;;;;;;1.75;1.65;;;4.70;99.90;;;;;;5090439;28;20424;-77
2021/01/01 03:58:55;;;;;;;2.00;1.63;;;6.10;99.90;;;;;;5091207;28;20850;-76
2021/01/01 04:01:21;;;;;;;2.13;1.85;;;4.30;99.90;;;;;;5090885;28;20432;-76
2021/01/01 04:03:47;;;;;;;2.10;1.80;;;4.00;99.90;;;;;;5090398;28;20449;-75
2021/01/01 04:06:12;;;;;;;2.00;1.80;;;5.20;99.90;;;;;;5090736;28;20385;-76
2021/01/01 04:08:38;;;;;;;2.70;2.00;;;4.70;99.90;;;;;;5090177;28;20378;-76
2021/01/01 04:11:04;;;;;;;2.10;1.70;;;6.40;99.90;;;;;;5089518;28;20715;-76
2021/01/01 04:13:29;;;;;;;2.10;1.90;;;3.90;99.90;;;;;;5090578;28;20407;-77
2021/01/01 04:15:55;;;;;;;3.40;2.07;;;5.00;99.90;;;;;;5090706;28;20855;-76
2021/01/01 04:18:21;;;;;;;2.10;1.90;;;4.10;99.90;;;;;;5090966;28;20858;-75
2021/01/01 04:20:47;;;;;;;2.20;1.92;;;4.00;99.90;;;;;;5090044;28;20436;-75
2021/01/01 04:23:12;;;;;;;2.75;1.88;;;4.00;99.90;;;;;;5090981;28;20374;-75
2021/01/01 04:25:38;;;;;;;2.50;2.25;;;5.40;99.90;;;;;;5089950;28;20854;-76
2021/01/01 04:28:03;;;;;;;3.40;2.20;;;4.60;99.90;;;;;;5091149;28;20374;-76
2021/01/01 04:30:29;;;;;;;2.33;1.90;;;4.00;99.90;;;;;;5089221;28;20414;-77
2021/01/01 04:32:55;;;;;;;2.50;2.30;;;3.60;99.90;;;;;;5090011;28;20394;-75
2021/01/01 04:35:20;;;;;;;3.60;2.77;;;6.10;99.90;;;;;;5090935;28;20408;-76
2021/01/01 04:37:46;;;;;;;3.60;2.50;;;3.90;99.90;;;;;;5092821;28;20765;-76
2021/01/01 04:40:13;;;;;;;4.80;3.33;;;3.90;99.90;;;;;;5094942;28;20842;-76
2021/01/01 04:42:39;;;;;;;3.28;2.50;;;4.10;99.90;;;;;;5092623;28;20414;-76
2021/01/01 04:45:06;;;;;;;3.60;2.50;;;6.50;99.90;;;;;;5093437;28;20463;-76
2021/01/01 04:47:32;;;;;;;3.45;2.80;;;3.80;99.90;;;;;;5093896;28;20785;-76
2021/01/01 04:50:02;;;;;;;3.60;3.10;;;3.60;99.90;;;;;;5094418;28;20374;-76
2021/01/01 04:52:32;;;;;;;4.53;3.00;;;3.90;99.90;;;;;;5094454;28;20389;-76
2021/01/01 04:54:59;;;;;;;4.27;2.70;;;3.40;99.90;;;;;;5094218;28;20464;-76
2021/01/01 04:57:25;;;;;;;3.45;2.80;;;3.40;99.90;;;;;;5094427;28;20417;-76
2021/01/01 04:59:51;;;;;;;2.77;2.50;;;3.90;99.90;;;;;;5093552;28;20435;-76
2021/01/01 05:02:17;;;;;;;3.60;2.80;;;3.40;99.90;;;;;;5094290;28;20464;-76
2021/01/01 05:04:46;;;;;;;4.10;3.10;;;5.50;99.90;;;;;;5093398;28;20480;-76
2021/01/01 05:07:19;;;;;;;4.13;3.15;;;3.80;99.90;;;;;;5094202;28;20512;-76
2021/01/01 05:09:45;;;;;;;3.40;2.65;;;5.70;99.90;;;;;;5093230;28;20712;-76
2021/01/01 05:12:12;;;;;;;5.20;3.50;;;5.00;99.90;;;;;;5094505;28;20382;-76
2021/01/01 05:14:41;;;;;;;4.18;3.28;;;3.70;99.90;;;;;;5093200;28;20370;-76
2021/01/01 05:17:08;;;;;;;4.53;3.42;;;3.40;99.90;;;;;;5093831;28;20417;-76
2021/01/01 05:19:42;;;;;;;4.95;3.42;;;4.80;99.90;;;;;;5093899;28;20385;-77
2021/01/01 05:22:12;;;;;;;3.30;3.00;;;3.60;99.90;;;;;;5093909;28;20853;-76
2021/01/01 05:24:45;;;;;;;3.40;2.63;;;4.20;99.90;;;;;;5093542;28;20741;-76
2021/01/01 05:27:12;;;;;;;3.53;2.38;;;3.30;99.90;;;;;;5093945;28;20476;-76
2021/01/01 05:29:54;;;;;;;2.33;1.63;;;3.10;99.90;;;;;;5093068;28;20374;-76
2021/01/01 05:32:30;;;;;;;2.20;1.77;;;2.60;99.90;;;;;;5093658;28;20418;-76
2021/01/01 05:34:57;;;;;;;2.38;1.77;;;2.90;99.90;;;;;;5092701;28;20410;-76
2021/01/01 05:37:34;;;;;;;1.90;1.25;;;3.70;99.90;;;;;;5093237;28;20406;-75
2021/01/01 05:40:08;;;;;;;1.23;1.13;;;2.80;99.90;;;;;;5093401;28;20427;-76
2021/01/01 05:42:38;;;;;;;1.20;1.10;;;2.80;99.90;;;;;;5093247;28;20381;-77
2021/01/01 05:45:17;;;;;;;1.20;1.00;;;3.50;99.90;;;;;;5093825;28;20381;-76
2021/01/01 05:48:03;;;;;;;0.80;0.70;;;2.60;99.90;;;;;;5090930;28;20378;-76
2021/01/01 05:50:28;;;;;;;1.00;0.90;;;3.90;99.90;;;;;;5092336;28;20470;-76
2021/01/01 05:53:13;;;;;;;1.27;1.05;;;2.70;99.90;;;;;;5092517;28;20377;-75
2021/01/01 05:55:39;;;;;;;1.10;0.70;;;2.40;99.90;;;;;;5092505;28;20421;-77
2021/01/01 05:58:25;;;;;;;0.50;0.50;;;3.70;99.90;;;;;;5093301;28;20854;-75
2021/01/01 06:00:57;;;;;;;1.20;1.10;;;2.60;99.90;;;;;;5092429;28;20392;-76
2021/01/01 06:03:24;;;;;;;1.40;1.10;;;4.80;99.90;;;;;;5092711;28;20402;-76
2021/01/01 06:05:55;;;;;;;0.93;0.90;;;2.70;99.90;;;;;;5092178;28;20405;-76
2021/01/01 06:08:27;;;;;;;1.50;1.10;;;2.40;99.90;;;;;;5092999;28;20473;-75
2021/01/01 06:10:58;;;;;;;1.40;1.00;;;4.00;99.90;;;;;;5092336;28;20873;-76
2021/01/01 06:13:24;;;;;;;1.05;0.90;;;4.10;99.90;;;;;;5093093;28;20382;-76
2021/01/01 06:15:56;;;;;;;1.00;0.90;;;3.80;99.90;;;;;;5092300;28;20433;-78
2021/01/01 06:18:42;;;;;;;0.90;0.80;;;3.90;99.90;;;;;;5092978;28;20412;-78
2021/01/01 06:21:08;;;;;;;1.30;1.02;;;3.60;99.90;;;;;;5092966;28;20482;-78
2021/01/01 06:23:38;;;;;;;1.70;1.02;;;3.00;99.90;;;;;;5093186;28;20492;-78
2021/01/01 06:26:10;;;;;;;1.10;1.00;;;4.80;99.90;;;;;;5092583;28;20481;-78
2021/01/01 06:28:37;;;;;;;1.30;1.20;;;2.60;99.90;;;;;;5092746;28;20765;-76
2021/01/01 06:31:04;;;;;;;1.17;1.00;;;2.40;99.90;;;;;;5091936;28;20378;-75
2021/01/01 06:33:32;;;;;;;1.60;1.10;;;4.70;99.90;;;;;;5092585;28;20389;-75
2021/01/01 06:35:58;;;;;;;1.33;1.15;;;4.70;99.90;;;;;;5091675;28;20550;-75
2021/01/01 06:38:40;;;;;;;0.90;0.80;;;2.60;99.90;;;;;;5092117;28;20866;-76
2021/01/01 06:41:41;;;;;;;1.40;0.90;;;2.60;99.90;;;;;;5092492;28;20436;-75
2021/01/01 06:44:07;;;;;;;0.85;0.73;;;2.70;99.90;;;;;;5092077;28;20385;-76
2021/01/01 06:46:40;;;;;;;1.70;1.00;;;4.20;99.90;;;;;;5092382;28;20374;-75
2021/01/01 06:49:07;;;;;;;1.40;1.10;;;4.70;99.90;;;;;;5092160;28;20430;-75
2021/01/01 06:51:33;;;;;;;1.00;0.90;;;3.60;99.90;;;;;;5092334;28;20427;-75
2021/01/01 06:54:15;;;;;;;1.90;1.00;;;4.00;99.90;;;;;;5091231;28;20374;-75
2021/01/01 06:56:43;;;;;;;0.80;0.80;;;2.60;99.90;;;;;;5091478;28;20442;-77
2021/01/01 06:59:14;;;;;;;1.40;1.00;;;2.40;99.90;;;;;;5090409;28;20393;-75
2021/01/01 07:01:44;;;;;;;1.30;1.00;;;2.50;99.90;;;;;;5091855;28;20392;-76
2021/01/01 07:04:10;;;;;;;1.52;1.02;;;2.40;99.90;;;;;;5092006;28;20422;-76
2021/01/01 07:06:38;;;;;;;0.80;0.80;;;2.50;99.90;;;;;;5092028;28;20795;-77
2021/01/01 07:09:05;;;;;;;1.23;1.13;;;2.50;99.90;;;;;;5091088;28;20407;-77
2021/01/01 07:11:31;;;;;;;1.00;0.70;;;4.00;99.90;;;;;;5092019;28;20394;-76
2021/01/01 07:14:07;;;;;;;1.00;0.80;;;2.70;99.90;;;;;;5091001;28;20382;-76
2021/01/01 07:16:45;;;;;;;1.13;0.80;;;2.50;99.90;;;;;;5090545;28;20504;-77
2021/01/01 07:19:12;;;;;;;1.30;1.08;;;2.60;99.90;;;;;;5091775;28;20809;-77
2021/01/01 07:21:38;;;;;;;1.40;1.20;;;2.40;99.90;;;;;;5092126;28;20425;-77
2021/01/01 07:24:05;;;;;;;1.20;1.00;;;2.90;99.90;;;;;;5091115;28;20385;-77
2021/01/01 07:26:30;;;;;;;1.35;1.25;;;2.40;99.90;;;;;;5091621;28;20378;-77
2021/01/01 07:28:59;;;;;;;1.33;1.10;;;2.90;99.90;;;;;;5090797;28;20954;-76
2021/01/01 07:31:25;;;;;;;1.20;1.10;;;2.20;99.90;;;;;;5091384;28;20420;-77
2021/01/01 07:33:51;;;;;;;0.80;0.60;;;2.60;99.90;;;;;;5090758;28;20382;-77
2021/01/01 07:36:17;;;;;;;1.80;0.80;;;2.40;99.90;;;;;;5091434;28;20422;-77
2021/01/01 07:38:46;;;;;;;1.15;1.00;;;2.60;99.90;;;;;;5088322;28;21435;-78
2021/01/01 07:41:13;;;;;;;1.00;0.80;;;3.70;99.90;;;;;;5091493;28;20398;-77
2021/01/01 07:43:39;;;;;;;1.40;1.02;;;2.60;99.90;;;;;;5091481;28;20382;-77
2021/01/01 07:46:06;;;;;;;1.00;0.80;;;4.40;99.90;;;;;;5090622;28;20386;-77
2021/01/01 07:48:33;;;;;;;1.30;1.20;;;3.90;99.90;;;;;;5091370;28;20476;-77
2021/01/01 07:51:01;;;;;;;1.50;1.40;;;2.60;99.90;;;;;;5090439;28;20378;-76
2021/01/01 07:53:27;;;;;;;1.33;1.15;;;5.10;99.90;;;;;;5091607;28;20756;-77
2021/01/01 07:55:52;;;;;;;1.73;1.38;;;2.50;99.90;;;;;;5091710;28;20402;-76
2021/01/01 07:58:18;;;;;;;1.70;1.27;;;3.30;99.90;;;;;;5096859;28;20382;-76
2021/01/01 08:00:46;;;;;;;1.60;1.40;;;3.90;99.90;;;;;;5090918;28;20775;-77
2021/01/01 08:03:15;;;;;;;1.70;1.20;;;3.60;99.90;;;;;;5090873;28;20731;-76
2021/01/01 08:05:47;;;;;;;1.70;1.50;;;4.10;99.90;;;;;;5088257;28;20439;-76
2021/01/01 08:08:24;;;;;;;2.05;1.55;;;4.60;99.90;;;;;;5089418;28;20401;-76
2021/01/01 08:10:54;;;;;;;1.40;1.30;;;2.60;99.90;;;;;;5087685;28;20412;-76
2021/01/01 08:13:30;;;;;;;1.70;1.30;;;3.10;99.90;;;;;;5091027;28;20393;-76
2021/01/01 08:15:58;;;;;;;1.95;1.65;;;3.70;99.90;;;;;;5090073;28;20413;-76
2021/01/01 08:18:26;;;;;;;1.70;1.50;;;2.50;99.90;;;;;;5090425;28;20387;-76
2021/01/01 08:20:55;;;;;;;1.80;1.48;;;3.70;99.90;;;;;;5088722;28;20393;-76
2021/01/01 08:23:21;;;;;;;1.90;1.52;;;2.50;99.90;;;;;;5090953;28;20527;-76
2021/01/01 08:25:47;;;;;;;1.88;1.48;;;4.40;99.90;;;;;;5089937;28;20457;-77
2021/01/01 08:28:20;;;;;;;1.58;1.40;;;2.90;99.90;;;;;;5090581;28;20385;-76
2021/01/01 08:30:58;;;;;;;1.37;1.20;;;4.60;99.90;;;;;;5090104;28;20449;-77
2021/01/01 08:33:26;;;;;;;1.30;1.20;;;2.90;99.90;;;;;;5090356;28;20408;-75
2021/01/01 08:36:02;;;;;;;1.50;1.30;;;5.00;99.90;;;;;;5089110;28;21021;-76
2021/01/01 08:38:27;;;;;;;1.58;1.35;;;3.10;99.90;;;;;;5090440;28;20415;-76
2021/01/01 08:40:58;;;;;;;1.50;1.30;;;3.10;99.90;;;;;;5094142;28;20450;-75
2021/01/01 08:43:25;;;;;;;1.10;1.00;;;3.10;99.90;;;;;;5098851;28;20396;-75
2021/01/01 08:45:50;;;;;;;1.30;1.20;;;3.10;99.90;;;;;;5100195;28;20380;-75
2021/01/01 08:48:17;;;;;;;1.20;0.90;;;3.90;99.90;;;;;;5101003;28;20385;-76
2021/01/01 08:50:49;;;;;;;0.80;0.80;;;2.80;99.90;;;;;;5099104;28;20881;-79
2021/01/01 08:53:16;;;;;;;2.23;1.33;;;3.10;99.90;;;;;;5106711;28;20475;-76
2021/01/01 08:55:43;;;;;;;1.65;1.55;;;4.10;99.90;;;;;;5109756;28;20495;-75
2021/01/01 08:58:13;;;;;;;1.65;1.50;;;5.00;99.90;;;;;;5110519;28;20457;-76
2021/01/01 09:00:44;;;;;;;1.90;1.60;;;3.30;99.90;;;;;;5110712;28;20773;-76
2021/01/01 09:03:15;;;;;;;1.63;1.40;;;3.20;99.90;;;;;;5110130;28;20381;-76
2021/01/01 09:05:41;;;;;;;1.83;1.63;;;4.00;99.90;;;;;;5110752;28;20900;-75
2021/01/01 09:08:10;;;;;;;3.10;1.90;;;3.10;99.90;;;;;;5110203;28;20380;-76
2021/01/01 09:10:40;;;;;;;2.40;2.20;;;3.10;99.90;;;;;;5110842;28;20460;-76
2021/01/01 09:13:26;;;;;;;2.28;2.08;;;3.10;99.90;;;;;;5110192;28;20413;-76
2021/01/01 09:16:09;;;;;;;1.80;1.70;;;3.20;99.90;;;;;;5109850;28;20494;-76
2021/01/01 09:18:35;;;;;;;2.40;2.10;;;3.30;99.90;;;;;;5110833;28;20900;-76
2021/01/01 09:21:15;;;;;;;2.00;1.90;;;3.70;99.90;;;;;;5110072;28;20384;-76
2021/01/01 09:23:43;;;;;;;2.10;1.90;;;3.40;99.90;;;;;;5114367;28;20483;-76
2021/01/01 09:26:09;;;;;;;2.20;2.00;;;3.40;99.90;;;;;;5113591;28;20379;-76
2021/01/01 09:28:35;;;;;;;2.30;1.70;;;4.00;99.90;;;;;;5114451;28;20380;-76
2021/01/01 09:31:01;;;;;;;2.00;1.80;;;5.00;99.90;;;;;;5113448;28;20376;-75
2021/01/01 09:33:27;;;;;;;2.03;1.65;;;3.40;99.90;;;;;;5114422;28;20471;-76
2021/01/01 09:35:53;;;;;;;2.10;1.80;;;5.70;99.90;;;;;;5112949;28;20440;-75
2021/01/01 09:38:19;;;;;;;2.30;2.00;;;5.20;99.90;;;;;;5114411;28;20447;-75
2021/01/01 09:40:45;;;;;;;2.00;1.80;;;3.90;99.90;;;;;;5113990;28;20447;-75
2021/01/01 09:43:11;;;;;;;2.10;2.00;;;5.20;99.90;;;;;;5113848;28;20499;-76
2021/01/01 09:45:38;;;;;;;2.13;1.92;;;4.30;99.90;;;;;;5105111;28;20402;-76
2021/01/01 09:48:05;;;;;;;2.40;2.20;;;5.90;99.90;;;;;;5092931;28;20374;-76
2021/01/01 09:50:31;;;;;;;2.50;2.30;;;3.60;99.90;;;;;;5092268;28;20393;-76
2021/01/01 09:52:56;;;;;;;2.25;2.05;;;4.80;99.90;;;;;;5092767;28;20382;-76
2021/01/01 09:55:22;;;;;;;2.63;2.10;;;5.60;99.90;;;;;;5093091;28;20769;-76
2021/01/01 09:57:48;;;;;;;2.22;1.98;;;4.80;99.90;;;;;;5091877;28;20394;-77
2021/01/01 10:00:16;;;;;;;2.53;2.00;;;3.50;99.90;;;;;;5092727;28;20451;-75
2021/01/01 10:02:42;;;;;;;3.22;2.25;;;3.80;99.90;;;;;;5093461;28;20394;-78
2021/01/01 10:05:09;;;;;;;2.22;2.03;;;4.60;99.90;;;;;;5092172;28;20394;-75
2021/01/01 10:07:35;;;;;;;2.30;1.80;;;3.90;99.90;;;;;;5093347;28;20862;-75
2021/01/01 10:10:06;;;;;;;2.50;2.20;;;5.10;99.90;;;;;;5092331;28;20478;-76
2021/01/01 10:12:31;;;;;;;2.40;2.00;;;3.90;99.90;;;;;;5093382;28;20382;-76
2021/01/01 10:14:58;;;;;;;2.58;2.33;;;4.80;99.90;;;;;;5091921;28;20374;-76
2021/01/01 10:17:33;;;;;;;2.97;2.30;;;4.00;99.90;;;;;;5092879;28;20446;-76
2021/01/01 10:19:58;;;;;;;2.33;2.13;;;4.50;99.90;;;;;;5092218;28;20425;-76
2021/01/01 10:22:24;;;;;;;2.90;2.47;;;4.60;99.90;;;;;;5091677;28;20382;-76
2021/01/01 10:24:50;;;;;;;4.17;2.70;;;4.10;99.90;;;;;;5092446;28;20473;-78
2021/01/01 10:27:16;;;;;;;3.30;2.60;;;4.80;99.90;;;;;;5092142;28;20393;-75
2021/01/01 10:29:42;;;;;;;2.85;2.20;;;3.80;99.90;;;;;;5091434;28;20400;-75
2021/01/01 10:32:09;;;;;;;2.47;2.00;;;4.20;99.90;;;;;;5091690;28;20394;-75
2021/01/01 10:34:37;;;;;;;2.38;2.15;;;4.20;99.90;;;;;;5091921;28;20393;-77
2021/01/01 10:37:02;;;;;;;2.92;2.30;;;4.80;99.90;;;;;;5091625;28;20432;-77
2021/01/01 10:39:28;;;;;;;2.30;2.00;;;4.20;99.90;;;;;;5092456;28;20389;-77
2021/01/01 10:41:54;;;;;;;1.70;1.60;;;4.20;99.90;;;;;;5091763;28;20385;-78
2021/01/01 10:44:19;;;;;;;1.53;1.43;;;6.10;99.90;;;;;;5092292;28;20856;-77
2021/01/01 10:46:54;;;;;;;1.40;1.30;;;5.90;99.90;;;;;;5092383;28;20441;-77
2021/01/01 10:49:24;;;;;;;1.88;1.77;;;4.20;99.90;;;;;;5093192;28;20400;-77
2021/01/01 10:51:50;;;;;;;2.22;1.90;;;4.30;99.90;;;;;;5090797;28;20893;-77
2021/01/01 10:54:16;;;;;;;2.20;1.70;;;5.10;99.90;;;;;;5091876;28;20408;-77
2021/01/01 10:56:45;;;;;;;2.10;1.80;;;4.30;99.90;;;;;;5091984;28;20402;-77
2021/01/01 10:59:10;;;;;;;2.03;1.83;;;4.10;99.90;;;;;;5090648;28;20459;-77
2021/01/01 11:01:36;;;;;;;1.80;1.70;;;5.70;99.90;;;;;;5091198;28;20386;-77
2021/01/01 11:04:02;;;;;;;2.17;1.70;;;4.40;99.90;;;;;;5090284;28;20747;-77
2021/01/01 11:06:27;;;;;;;2.20;1.80;;;4.70;99.90;;;;;;5091749;28;20386;-76
2021/01/01 11:08:53;;;;;;;2.20;1.80;;;5.70;99.90;;;;;;5091760;28;20432;-77
2021/01/01 11:11:23;;;;;;;1.60;1.37;;;4.30;99.90;;;;;;5091889;28;20870;-76
2021/01/01 11:13:53;;;;;;;1.90;1.70;;;4.50;99.90;;;;;;5091608;28;20480;-76
2021/01/01 12:25:08;;;;;;;3.25;2.50;;;4.90;99.90;;;;;;5088889;28;20374;-77
2021/01/01 12:27:37;;;;;;;3.50;2.38;;;4.50;99.90;;;;;;5090642;28;20389;-77
2021/01/01 12:30:08;;;;;;;2.97;2.30;;;4.20;99.90;;;;;;5089947;28;20377;-77
2021/01/01 12:32:39;;;;;;;3.00;2.25;;;4.30;99.90;;;;;;5090269;28;20390;-77
2021/01/01 12:35:07;;;;;;;3.45;2.47;;;4.50;99.90;;;;;;5089991;28;20726;-77
2021/01/01 12:37:33;;;;;;;2.60;2.40;;;4.60;99.90;;;;;;5090648;28;20434;-77
2021/01/01 12:39:58;;;;;;;4.45;2.80;;;4.60;99.90;;;;;;5090829;28;20842;-78
2021/01/01 12:42:24;;;;;;;2.63;2.43;;;4.60;99.90;;;;;;5089112;28;20386;-77
2021/01/01 12:44:50;;;;;;;3.27;2.40;;;4.90;99.90;;;;;;5090455;28;20863;-77
2021/01/01 12:47:15;;;;;;;3.38;2.50;;;4.00;99.90;;;;;;5089822;28;20382;-77
2021/01/01 12:49:45;;;;;;;3.50;2.40;;;4.40;99.90;;;;;;5090386;28;20432;-77
2021/01/01 12:52:11;;;;;;;2.50;2.30;;;4.60;99.90;;;;;;5088412;28;20886;-77
2021/01/01 12:54:37;;;;;;;2.90;2.57;;;5.00;99.90;;;;;;5090685;28;20526;-76
2021/01/01 12:57:03;;;;;;;2.40;2.20;;;5.40;99.90;;;;;;5091452;28;20497;-76
2021/01/01 12:59:29;;;;;;;2.67;2.47;;;4.30;99.90;;;;;;5094740;28;20381;-76
2021/01/01 13:01:55;;;;;;;2.92;2.63;;;4.30;99.90;;;;;;5094052;28;20742;-76
2021/01/01 13:04:20;;;;;;;3.00;2.40;;;4.60;99.90;;;;;;5093631;28;20378;-76
2021/01/01 13:06:46;;;;;;;2.53;2.30;;;4.10;99.90;;;;;;5094117;28;20381;-76
2021/01/01 13:09:12;;;;;;;2.90;2.20;;;4.50;99.90;;;;;;5093291;28;20386;-78
2021/01/01 13:11:45;;;;;;;2.90;2.20;;;5.90;99.90;;;;;;5093685;28;20515;-76
2021/01/01 13:14:11;;;;;;;2.63;2.20;;;6.20;99.90;;;;;;5093267;28;20455;-77
2021/01/01 13:16:37;;;;;;;2.75;2.40;;;6.20;99.90;;;;;;5093429;28;20394;-76
2021/01/01 13:19:03;;;;;;;3.73;2.50;;;4.70;99.90;;;;;;5093101;28;20486;-81
2021/01/01 13:21:31;;;;;;;3.35;2.50;;;4.80;99.90;;;;;;5094071;28;20503;-81
2021/01/01 13:23:59;;;;;;;2.20;2.00;;;6.30;99.90;;;;;;5094203;28;20382;-80
2021/01/01 13:26:26;;;;;;;2.78;2.30;;;4.50;99.90;;;;;;5093191;28;20380;-80
2021/01/01 13:28:53;;;;;;;3.10;2.80;;;4.60;99.90;;;;;;5094112;28;20366;-81
2021/01/01 13:31:20;;;;;;;2.90;2.37;;;4.80;99.90;;;;;;5093306;28;20389;-81
2021/01/01 13:33:46;;;;;;;3.30;2.70;;;4.40;99.90;;;;;;5094059;28;20435;-81
2021/01/01 13:36:17;;;;;;;3.10;2.80;;;5.00;99.90;;;;;;5093044;28;20482;-81
2021/01/01 13:38:43;;;;;;;3.15;2.63;;;4.60;99.90;;;;;;5092624;28;20718;-81
2021/01/01 13:41:13;;;;;;;3.45;2.80;;;4.40;99.90;;;;;;5093126;28;20377;-81
2021/01/01 13:43:43;;;;;;;3.90;3.13;;;4.40;99.90;;;;;;5093705;28;20382;-81
2021/01/01 13:46:10;;;;;;;2.80;2.50;;;5.50;99.90;;;;;;5092857;28;20388;-81
2021/01/01 13:48:36;;;;;;;3.20;2.90;;;4.40;99.90;;;;;;5093619;28;20382;-80
2021/01/01 13:51:05;;;;;;;3.10;2.50;;;4.50;99.90;;;;;;5094007;28;20465;-80
2021/01/01 13:53:31;;;;;;;3.35;2.85;;;4.50;99.90;;;;;;5094064;28;20393;-80
2021/01/01 13:55:57;;;;;;;3.38;2.58;;;5.70;99.90;;;;;;5094334;28;20410;-80
2021/01/01 13:58:24;;;;;;;2.85;2.45;;;;;;;;;;5093055;28;20382;-81
2021/01/01 14:00:51;;;;;;;3.10;2.55;;;4.20;99.90;;;;;;5093575;28;20401;-81
2021/01/01 14:03:17;;;;;;;3.60;3.05;;;5.20;99.90;;;;;;5092602;28;20958;-81
2021/01/01 14:05:43;;;;;;;3.30;3.00;;;4.60;99.90;;;;;;5093748;28;20386;-80
2021/01/01 14:08:09;;;;;;;4.17;2.60;;;3.90;99.90;;;;;;5091456;28;20445;-80
2021/01/01 14:10:35;;;;;;;3.70;2.80;;;4.90;99.90;;;;;;5098410;28;20413;-80